Elnora, New York
Current Conditions -  °F | °C
As of 1:51 AM on Thursday 27 Nov 2014 (Local Time) from KALB Reporting Station
Light Snow Light Snow  
Wind Chill: -6°   Ceiling: 2500
Heat Index: -1°   Visibility: 1.5mi
Dew Point: -2°   Wind: 12mph
Humidity: 89%   Direction: 340°NNW
Pressure: 29.92"   Gusts: NA
Location:  42.8536°N, 73.7851°W
Report Text: KALB 270651Z 34010KT 1 1/2SM -SN BR FEW005 SCT010 OVC025 M01/M02 A2992 RMK AO2 SFC VIS 1 3/4 SLP134 VIS 1 1/2V2 P0002 T10061022
Loading
Personal Weather Stations






























Interactive Weather Map New forecast layout! Learn more

10-Day Weather Forecast

Advertisements
Track Severe Weather on mobile